sensor_id;sensor_type;location;lat;lon;timestamp;P1;durP1;ratioP1;P2;durP2;ratioP2
55987;SDS011;67216;50.930;4.514;2023-02-18T00:01:12;33.05;;;22.33;;
55987;SDS011;67216;50.930;4.514;2023-02-18T00:03:41;31.20;;;20.95;;
55987;SDS011;67216;50.930;4.514;2023-02-18T00:06:14;32.53;;;20.13;;
55987;SDS011;67216;50.930;4.514;2023-02-18T00:08:41;32.55;;;20.85;;
55987;SDS011;67216;50.930;4.514;2023-02-18T00:11:11;28.92;;;20.70;;
55987;SDS011;67216;50.930;4.514;2023-02-18T00:13:38;28.20;;;20.10;;
55987;SDS011;67216;50.930;4.514;2023-02-18T00:16:07;29.25;;;20.10;;
55987;SDS011;67216;50.930;4.514;2023-02-18T00:18:34;29.88;;;19.60;;
55987;SDS011;67216;50.930;4.514;2023-02-18T00:21:04;25.40;;;18.50;;
55987;SDS011;67216;50.930;4.514;2023-02-18T00:23:31;28.20;;;19.80;;
55987;SDS011;67216;50.930;4.514;2023-02-18T00:26:02;28.50;;;19.20;;
55987;SDS011;67216;50.930;4.514;2023-02-18T00:28:30;29.25;;;19.17;;
55987;SDS011;67216;50.930;4.514;2023-02-18T00:30:56;30.75;;;19.40;;
55987;SDS011;67216;50.930;4.514;2023-02-18T00:33:22;28.90;;;17.75;;
55987;SDS011;67216;50.930;4.514;2023-02-18T00:35:50;26.40;;;17.42;;
55987;SDS011;67216;50.930;4.514;2023-02-18T00:38:16;24.35;;;16.70;;
55987;SDS011;67216;50.930;4.514;2023-02-18T00:40:44;27.23;;;16.98;;
55987;SDS011;67216;50.930;4.514;2023-02-18T00:43:14;29.08;;;17.17;;
55987;SDS011;67216;50.930;4.514;2023-02-18T00:45:40;23.55;;;15.73;;
55987;SDS011;67216;50.930;4.514;2023-02-18T00:48:06;26.52;;;16.17;;
55987;SDS011;67216;50.930;4.514;2023-02-18T00:50:32;23.90;;;14.88;;
55987;SDS011;67216;50.930;4.514;2023-02-18T00:53:00;25.05;;;15.68;;
55987;SDS011;67216;50.930;4.514;2023-02-18T00:55:28;23.67;;;14.85;;
55987;SDS011;67216;50.930;4.514;2023-02-18T00:57:54;19.25;;;13.75;;
55987;SDS011;67216;50.930;4.514;2023-02-18T01:00:20;21.13;;;13.52;;
55987;SDS011;67216;50.930;4.514;2023-02-18T01:02:49;21.52;;;13.32;;
55987;SDS011;67216;50.930;4.514;2023-02-18T01:05:18;19.63;;;13.30;;
55987;SDS011;67216;50.930;4.514;2023-02-18T01:07:44;22.02;;;13.38;;
55987;SDS011;67216;50.930;4.514;2023-02-18T01:10:12;21.98;;;12.93;;
55987;SDS011;67216;50.930;4.514;2023-02-18T01:12:40;19.25;;;12.80;;
55987;SDS011;67216;50.930;4.514;2023-02-18T01:15:10;18.17;;;11.15;;
55987;SDS011;67216;50.930;4.514;2023-02-18T01:17:39;17.20;;;10.80;;
55987;SDS011;67216;50.930;4.514;2023-02-18T01:20:05;16.98;;;10.52;;
55987;SDS011;67216;50.930;4.514;2023-02-18T01:22:32;15.05;;;9.30;;
55987;SDS011;67216;50.930;4.514;2023-02-18T01:25:00;12.70;;;8.95;;
55987;SDS011;67216;50.930;4.514;2023-02-18T01:27:26;16.95;;;8.75;;
55987;SDS011;67216;50.930;4.514;2023-02-18T01:29:51;14.25;;;9.13;;
55987;SDS011;67216;50.930;4.514;2023-02-18T01:32:17;12.88;;;8.25;;
55987;SDS011;67216;50.930;4.514;2023-02-18T01:34:43;12.07;;;7.60;;
55987;SDS011;67216;50.930;4.514;2023-02-18T01:37:11;9.85;;;6.75;;
55987;SDS011;67216;50.930;4.514;2023-02-18T01:39:37;11.20;;;7.22;;
55987;SDS011;67216;50.930;4.514;2023-02-18T01:42:15;12.13;;;6.43;;
55987;SDS011;67216;50.930;4.514;2023-02-18T01:44:45;8.85;;;5.45;;
55987;SDS011;67216;50.930;4.514;2023-02-18T01:47:11;9.13;;;5.45;;
55987;SDS011;67216;50.930;4.514;2023-02-18T01:49:37;8.20;;;5.25;;
55987;SDS011;67216;50.930;4.514;2023-02-18T01:52:24;6.57;;;4.50;;
55987;SDS011;67216;50.930;4.514;2023-02-18T01:54:56;10.20;;;4.15;;
55987;SDS011;67216;50.930;4.514;2023-02-18T01:57:23;6.00;;;4.40;;
55987;SDS011;67216;50.930;4.514;2023-02-18T01:59:54;5.72;;;3.88;;
55987;SDS011;67216;50.930;4.514;2023-02-18T02:02:23;5.25;;;3.70;;
55987;SDS011;67216;50.930;4.514;2023-02-18T02:04:54;5.22;;;3.65;;
55987;SDS011;67216;50.930;4.514;2023-02-18T02:07:23;5.38;;;3.47;;
55987;SDS011;67216;50.930;4.514;2023-02-18T02:09:51;5.43;;;3.03;;
55987;SDS011;67216;50.930;4.514;2023-02-18T02:45:50;5.65;;;3.50;;
55987;SDS011;67216;50.930;4.514;2023-02-18T02:53:33;4.88;;;2.97;;
55987;SDS011;67216;50.930;4.514;2023-02-18T02:56:00;4.28;;;2.90;;
55987;SDS011;67216;50.930;4.514;2023-02-18T02:58:26;3.95;;;2.65;;
55987;SDS011;67216;50.930;4.514;2023-02-18T03:03:53;3.67;;;2.90;;
55987;SDS011;67216;50.930;4.514;2023-02-18T03:09:46;3.80;;;2.40;;
55987;SDS011;67216;50.930;4.514;2023-02-18T03:14:58;4.30;;;2.80;;
55987;SDS011;67216;50.930;4.514;2023-02-18T03:17:45;4.60;;;3.10;;
55987;SDS011;67216;50.930;4.514;2023-02-18T03:20:35;4.45;;;3.15;;
55987;SDS011;67216;50.930;4.514;2023-02-18T03:23:06;4.22;;;3.40;;
55987;SDS011;67216;50.930;4.514;2023-02-18T03:25:38;4.22;;;3.35;;
55987;SDS011;67216;50.930;4.514;2023-02-18T03:28:04;5.68;;;3.55;;
55987;SDS011;67216;50.930;4.514;2023-02-18T03:30:47;5.57;;;3.72;;
55987;SDS011;67216;50.930;4.514;2023-02-18T03:33:15;4.88;;;3.45;;
55987;SDS011;67216;50.930;4.514;2023-02-18T03:35:45;3.92;;;3.10;;
55987;SDS011;67216;50.930;4.514;2023-02-18T03:38:17;4.15;;;3.05;;
55987;SDS011;67216;50.930;4.514;2023-02-18T03:40:54;4.03;;;3.00;;
55987;SDS011;67216;50.930;4.514;2023-02-18T03:43:20;5.18;;;3.15;;
55987;SDS011;67216;50.930;4.514;2023-02-18T03:45:46;5.15;;;2.75;;
55987;SDS011;67216;50.930;4.514;2023-02-18T03:48:12;3.92;;;2.78;;
55987;SDS011;67216;50.930;4.514;2023-02-18T03:50:38;4.97;;;3.28;;
55987;SDS011;67216;50.930;4.514;2023-02-18T03:53:06;5.00;;;3.28;;
55987;SDS011;67216;50.930;4.514;2023-02-18T03:55:31;5.47;;;3.55;;
55987;SDS011;67216;50.930;4.514;2023-02-18T03:57:57;5.15;;;2.78;;
55987;SDS011;67216;50.930;4.514;2023-02-18T04:00:23;4.47;;;3.45;;
55987;SDS011;67216;50.930;4.514;2023-02-18T04:02:52;5.00;;;3.42;;
55987;SDS011;67216;50.930;4.514;2023-02-18T04:05:20;4.38;;;2.80;;
55987;SDS011;67216;50.930;4.514;2023-02-18T04:07:46;4.50;;;3.47;;
55987;SDS011;67216;50.930;4.514;2023-02-18T04:10:15;4.73;;;3.30;;
55987;SDS011;67216;50.930;4.514;2023-02-18T04:12:40;4.68;;;3.70;;
55987;SDS011;67216;50.930;4.514;2023-02-18T04:15:06;6.47;;;3.55;;
55987;SDS011;67216;50.930;4.514;2023-02-18T04:17:33;4.88;;;3.50;;
55987;SDS011;67216;50.930;4.514;2023-02-18T04:20:00;4.07;;;3.38;;
55987;SDS011;67216;50.930;4.514;2023-02-18T04:22:28;5.65;;;3.25;;
55987;SDS011;67216;50.930;4.514;2023-02-18T04:24:54;4.03;;;3.33;;
55987;SDS011;67216;50.930;4.514;2023-02-18T04:27:25;3.90;;;3.15;;
55987;SDS011;67216;50.930;4.514;2023-02-18T04:29:53;3.90;;;3.20;;
55987;SDS011;67216;50.930;4.514;2023-02-18T04:32:19;5.13;;;3.47;;
55987;SDS011;67216;50.930;4.514;2023-02-18T04:34:45;3.70;;;2.95;;
55987;SDS011;67216;50.930;4.514;2023-02-18T04:37:13;4.50;;;3.35;;
55987;SDS011;67216;50.930;4.514;2023-02-18T04:39:38;5.03;;;3.50;;
55987;SDS011;67216;50.930;4.514;2023-02-18T04:42:07;5.07;;;4.15;;
55987;SDS011;67216;50.930;4.514;2023-02-18T04:44:37;5.20;;;4.20;;
55987;SDS011;67216;50.930;4.514;2023-02-18T04:47:06;4.25;;;3.20;;
55987;SDS011;67216;50.930;4.514;2023-02-18T04:49:37;6.90;;;3.92;;
55987;SDS011;67216;50.930;4.514;2023-02-18T04:52:03;5.20;;;3.90;;
55987;SDS011;67216;50.930;4.514;2023-02-18T04:54:29;6.93;;;4.00;;
55987;SDS011;67216;50.930;4.514;2023-02-18T04:56:54;4.93;;;3.75;;
55987;SDS011;67216;50.930;4.514;2023-02-18T04:59:20;5.50;;;3.75;;
55987;SDS011;67216;50.930;4.514;2023-02-18T05:01:46;6.03;;;3.97;;
55987;SDS011;67216;50.930;4.514;2023-02-18T05:04:12;5.10;;;3.97;;
55987;SDS011;67216;50.930;4.514;2023-02-18T05:06:38;5.07;;;3.60;;
55987;SDS011;67216;50.930;4.514;2023-02-18T05:09:04;6.57;;;3.97;;
55987;SDS011;67216;50.930;4.514;2023-02-18T05:11:30;5.03;;;3.80;;
55987;SDS011;67216;50.930;4.514;2023-02-18T05:13:59;5.18;;;4.00;;
55987;SDS011;67216;50.930;4.514;2023-02-18T05:16:24;6.57;;;3.80;;
55987;SDS011;67216;50.930;4.514;2023-02-18T05:18:53;5.35;;;3.90;;
55987;SDS011;67216;50.930;4.514;2023-02-18T05:21:19;6.47;;;4.07;;
55987;SDS011;67216;50.930;4.514;2023-02-18T05:23:45;4.40;;;3.33;;
55987;SDS011;67216;50.930;4.514;2023-02-18T05:26:11;4.65;;;2.95;;
55987;SDS011;67216;50.930;4.514;2023-02-18T05:28:36;4.78;;;3.35;;
55987;SDS011;67216;50.930;4.514;2023-02-18T05:31:02;5.05;;;3.05;;
55987;SDS011;67216;50.930;4.514;2023-02-18T05:33:28;3.75;;;2.95;;
55987;SDS011;67216;50.930;4.514;2023-02-18T05:35:54;3.80;;;3.08;;
55987;SDS011;67216;50.930;4.514;2023-02-18T05:38:21;3.33;;;2.45;;
55987;SDS011;67216;50.930;4.514;2023-02-18T05:40:47;4.57;;;2.72;;
55987;SDS011;67216;50.930;4.514;2023-02-18T05:43:19;6.88;;;2.75;;
55987;SDS011;67216;50.930;4.514;2023-02-18T05:45:44;3.42;;;2.20;;
55987;SDS011;67216;50.930;4.514;2023-02-18T05:48:11;5.60;;;2.42;;
55987;SDS011;67216;50.930;4.514;2023-02-18T05:50:36;5.70;;;2.55;;
55987;SDS011;67216;50.930;4.514;2023-02-18T05:53:02;6.85;;;2.40;;
55987;SDS011;67216;50.930;4.514;2023-02-18T05:55:28;10.80;;;2.88;;
55987;SDS011;67216;50.930;4.514;2023-02-18T05:57:54;6.00;;;2.53;;
55987;SDS011;67216;50.930;4.514;2023-02-18T06:00:19;11.95;;;3.30;;
55987;SDS011;67216;50.930;4.514;2023-02-18T06:02:45;9.52;;;2.90;;
55987;SDS011;67216;50.930;4.514;2023-02-18T06:05:11;8.52;;;2.75;;
55987;SDS011;67216;50.930;4.514;2023-02-18T06:07:37;10.65;;;2.63;;
55987;SDS011;67216;50.930;4.514;2023-02-18T06:10:03;8.55;;;3.13;;
55987;SDS011;67216;50.930;4.514;2023-02-18T06:12:32;12.80;;;2.70;;
55987;SDS011;67216;50.930;4.514;2023-02-18T06:14:57;13.75;;;2.72;;
55987;SDS011;67216;50.930;4.514;2023-02-18T06:17:23;10.93;;;2.47;;
55987;SDS011;67216;50.930;4.514;2023-02-18T06:19:53;12.32;;;2.72;;
55987;SDS011;67216;50.930;4.514;2023-02-18T06:22:20;11.00;;;2.83;;
55987;SDS011;67216;50.930;4.514;2023-02-18T06:24:46;12.65;;;3.15;;
55987;SDS011;67216;50.930;4.514;2023-02-18T06:27:14;12.25;;;2.53;;
55987;SDS011;67216;50.930;4.514;2023-02-18T06:29:45;18.42;;;3.72;;
55987;SDS011;67216;50.930;4.514;2023-02-18T06:32:11;13.35;;;2.90;;
55987;SDS011;67216;50.930;4.514;2023-02-18T06:34:39;12.02;;;2.38;;
55987;SDS011;67216;50.930;4.514;2023-02-18T06:37:04;12.55;;;3.05;;
55987;SDS011;67216;50.930;4.514;2023-02-18T06:39:30;19.77;;;3.78;;
55987;SDS011;67216;50.930;4.514;2023-02-18T06:41:56;13.90;;;3.17;;
55987;SDS011;67216;50.930;4.514;2023-02-18T06:44:25;15.05;;;2.97;;
55987;SDS011;67216;50.930;4.514;2023-02-18T06:46:51;18.20;;;3.80;;
55987;SDS011;67216;50.930;4.514;2023-02-18T06:49:19;20.63;;;3.97;;
55987;SDS011;67216;50.930;4.514;2023-02-18T06:51:45;12.05;;;3.47;;
55987;SDS011;67216;50.930;4.514;2023-02-18T06:54:11;20.38;;;3.47;;
55987;SDS011;67216;50.930;4.514;2023-02-18T06:56:36;20.55;;;3.70;;
55987;SDS011;67216;50.930;4.514;2023-02-18T06:59:02;20.00;;;4.05;;
55987;SDS011;67216;50.930;4.514;2023-02-18T07:01:30;20.55;;;4.10;;
55987;SDS011;67216;50.930;4.514;2023-02-18T07:03:57;20.95;;;4.45;;
55987;SDS011;67216;50.930;4.514;2023-02-18T07:06:22;24.67;;;4.55;;
55987;SDS011;67216;50.930;4.514;2023-02-18T07:08:50;16.63;;;3.85;;
55987;SDS011;67216;50.930;4.514;2023-02-18T07:11:16;19.13;;;3.75;;
55987;SDS011;67216;50.930;4.514;2023-02-18T07:13:42;23.02;;;3.38;;
55987;SDS011;67216;50.930;4.514;2023-02-18T07:16:07;15.10;;;3.05;;
55987;SDS011;67216;50.930;4.514;2023-02-18T07:18:33;18.88;;;3.65;;
55987;SDS011;67216;50.930;4.514;2023-02-18T07:20:59;16.65;;;3.42;;
55987;SDS011;67216;50.930;4.514;2023-02-18T07:23:24;12.50;;;2.60;;
55987;SDS011;67216;50.930;4.514;2023-02-18T07:25:50;20.95;;;3.10;;
55987;SDS011;67216;50.930;4.514;2023-02-18T07:28:20;20.02;;;3.78;;
55987;SDS011;67216;50.930;4.514;2023-02-18T07:30:46;22.13;;;3.97;;
55987;SDS011;67216;50.930;4.514;2023-02-18T07:33:15;21.88;;;4.35;;
55987;SDS011;67216;50.930;4.514;2023-02-18T07:35:41;15.73;;;3.53;;
55987;SDS011;67216;50.930;4.514;2023-02-18T07:38:07;15.38;;;3.40;;
55987;SDS011;67216;50.930;4.514;2023-02-18T07:40:33;13.10;;;3.05;;
55987;SDS011;67216;50.930;4.514;2023-02-18T07:42:58;23.33;;;3.78;;
55987;SDS011;67216;50.930;4.514;2023-02-18T07:45:24;16.90;;;2.83;;
55987;SDS011;67216;50.930;4.514;2023-02-18T07:47:50;19.98;;;4.00;;
55987;SDS011;67216;50.930;4.514;2023-02-18T07:50:17;20.42;;;3.90;;
55987;SDS011;67216;50.930;4.514;2023-02-18T07:52:42;18.00;;;3.53;;
55987;SDS011;67216;50.930;4.514;2023-02-18T07:55:08;16.92;;;3.22;;
55987;SDS011;67216;50.930;4.514;2023-02-18T07:57:34;19.02;;;3.90;;
55987;SDS011;67216;50.930;4.514;2023-02-18T08:00:20;16.90;;;3.40;;
55987;SDS011;67216;50.930;4.514;2023-02-18T08:02:48;20.17;;;3.80;;
55987;SDS011;67216;50.930;4.514;2023-02-18T08:05:13;23.35;;;3.95;;
55987;SDS011;67216;50.930;4.514;2023-02-18T08:07:39;17.00;;;3.75;;
55987;SDS011;67216;50.930;4.514;2023-02-18T08:10:08;26.33;;;3.72;;
55987;SDS011;67216;50.930;4.514;2023-02-18T08:12:33;18.95;;;4.18;;
55987;SDS011;67216;50.930;4.514;2023-02-18T08:15:03;19.83;;;3.95;;
55987;SDS011;67216;50.930;4.514;2023-02-18T08:17:29;17.45;;;3.83;;
55987;SDS011;67216;50.930;4.514;2023-02-18T08:19:55;23.15;;;3.42;;
55987;SDS011;67216;50.930;4.514;2023-02-18T08:22:20;16.80;;;3.80;;
55987;SDS011;67216;50.930;4.514;2023-02-18T08:24:46;19.55;;;3.35;;
55987;SDS011;67216;50.930;4.514;2023-02-18T08:27:12;18.15;;;3.45;;
55987;SDS011;67216;50.930;4.514;2023-02-18T08:29:39;20.10;;;3.33;;
55987;SDS011;67216;50.930;4.514;2023-02-18T08:32:04;17.33;;;3.08;;
55987;SDS011;67216;50.930;4.514;2023-02-18T08:34:30;19.42;;;3.10;;
55987;SDS011;67216;50.930;4.514;2023-02-18T08:36:56;17.40;;;3.30;;
55987;SDS011;67216;50.930;4.514;2023-02-18T08:39:21;16.48;;;3.17;;
55987;SDS011;67216;50.930;4.514;2023-02-18T08:41:49;16.92;;;2.58;;
55987;SDS011;67216;50.930;4.514;2023-02-18T08:44:16;17.98;;;3.20;;
55987;SDS011;67216;50.930;4.514;2023-02-18T08:46:41;19.40;;;3.40;;
55987;SDS011;67216;50.930;4.514;2023-02-18T08:49:07;15.00;;;2.70;;
55987;SDS011;67216;50.930;4.514;2023-02-18T08:51:33;14.65;;;2.75;;
55987;SDS011;67216;50.930;4.514;2023-02-18T08:54:02;16.60;;;2.47;;
55987;SDS011;67216;50.930;4.514;2023-02-18T08:56:28;12.18;;;2.30;;
55987;SDS011;67216;50.930;4.514;2023-02-18T08:58:57;12.00;;;2.60;;
55987;SDS011;67216;50.930;4.514;2023-02-18T09:01:23;12.38;;;2.67;;
55987;SDS011;67216;50.930;4.514;2023-02-18T09:03:52;11.90;;;2.25;;
55987;SDS011;67216;50.930;4.514;2023-02-18T09:06:21;10.07;;;2.50;;
55987;SDS011;67216;50.930;4.514;2023-02-18T09:08:47;14.85;;;2.47;;
55987;SDS011;67216;50.930;4.514;2023-02-18T09:11:13;13.90;;;2.28;;
55987;SDS011;67216;50.930;4.514;2023-02-18T09:13:39;14.13;;;2.60;;
55987;SDS011;67216;50.930;4.514;2023-02-18T09:16:06;11.75;;;2.30;;
55987;SDS011;67216;50.930;4.514;2023-02-18T09:18:33;13.75;;;2.58;;
55987;SDS011;67216;50.930;4.514;2023-02-18T09:21:05;15.82;;;2.67;;
55987;SDS011;67216;50.930;4.514;2023-02-18T09:23:34;14.10;;;2.45;;
55987;SDS011;67216;50.930;4.514;2023-02-18T09:26:02;8.55;;;1.92;;
55987;SDS011;67216;50.930;4.514;2023-02-18T09:28:30;9.32;;;2.03;;
55987;SDS011;67216;50.930;4.514;2023-02-18T09:30:56;12.32;;;2.10;;
55987;SDS011;67216;50.930;4.514;2023-02-18T09:33:25;12.10;;;1.73;;
55987;SDS011;67216;50.930;4.514;2023-02-18T09:35:50;8.73;;;2.00;;
55987;SDS011;67216;50.930;4.514;2023-02-18T09:38:19;10.13;;;1.77;;
55987;SDS011;67216;50.930;4.514;2023-02-18T09:40:51;11.57;;;2.15;;
55987;SDS011;67216;50.930;4.514;2023-02-18T09:43:23;13.32;;;1.92;;
55987;SDS011;67216;50.930;4.514;2023-02-18T09:45:53;10.05;;;2.45;;
55987;SDS011;67216;50.930;4.514;2023-02-18T09:50:59;9.93;;;1.90;;
55987;SDS011;67216;50.930;4.514;2023-02-18T09:53:30;15.73;;;2.58;;
55987;SDS011;67216;50.930;4.514;2023-02-18T09:55:56;11.13;;;2.47;;
55987;SDS011;67216;50.930;4.514;2023-02-18T09:58:27;12.02;;;2.53;;
55987;SDS011;67216;50.930;4.514;2023-02-18T10:03:37;7.53;;;2.22;;
55987;SDS011;67216;50.930;4.514;2023-02-18T10:06:05;12.73;;;2.60;;
55987;SDS011;67216;50.930;4.514;2023-02-18T10:08:37;8.50;;;2.25;;
55987;SDS011;67216;50.930;4.514;2023-02-18T10:11:15;9.48;;;2.25;;
55987;SDS011;67216;50.930;4.514;2023-02-18T10:13:47;12.88;;;2.70;;
55987;SDS011;67216;50.930;4.514;2023-02-18T10:18:47;10.27;;;2.30;;
55987;SDS011;67216;50.930;4.514;2023-02-18T10:21:19;10.35;;;2.95;;
55987;SDS011;67216;50.930;4.514;2023-02-18T10:26:34;11.90;;;2.22;;
55987;SDS011;67216;50.930;4.514;2023-02-18T10:29:02;12.65;;;2.72;;
55987;SDS011;67216;50.930;4.514;2023-02-18T10:32:11;10.82;;;2.05;;
55987;SDS011;67216;50.930;4.514;2023-02-18T10:34:38;13.82;;;2.78;;
55987;SDS011;67216;50.930;4.514;2023-02-18T10:42:54;16.20;;;2.38;;
55987;SDS011;67216;50.930;4.514;2023-02-18T10:48:05;9.68;;;2.45;;
55987;SDS011;67216;50.930;4.514;2023-02-18T10:50:46;13.23;;;2.10;;
55987;SDS011;67216;50.930;4.514;2023-02-18T10:53:24;12.38;;;2.60;;
55987;SDS011;67216;50.930;4.514;2023-02-18T10:56:00;8.98;;;1.70;;
55987;SDS011;67216;50.930;4.514;2023-02-18T10:58:29;9.05;;;2.03;;
55987;SDS011;67216;50.930;4.514;2023-02-18T11:00:58;17.83;;;3.15;;
55987;SDS011;67216;50.930;4.514;2023-02-18T11:03:39;15.18;;;2.05;;
55987;SDS011;67216;50.930;4.514;2023-02-18T11:06:15;13.02;;;2.38;;
55987;SDS011;67216;50.930;4.514;2023-02-18T11:08:56;12.10;;;2.28;;
55987;SDS011;67216;50.930;4.514;2023-02-18T11:11:24;10.48;;;2.22;;
55987;SDS011;67216;50.930;4.514;2023-02-18T11:13:55;10.48;;;1.90;;
55987;SDS011;67216;50.930;4.514;2023-02-18T11:16:34;11.60;;;2.10;;
55987;SDS011;67216;50.930;4.514;2023-02-18T11:19:02;13.75;;;2.72;;
55987;SDS011;67216;50.930;4.514;2023-02-18T11:21:49;13.02;;;2.20;;
55987;SDS011;67216;50.930;4.514;2023-02-18T11:24:30;13.85;;;2.78;;
55987;SDS011;67216;50.930;4.514;2023-02-18T11:26:55;12.07;;;2.67;;
55987;SDS011;67216;50.930;4.514;2023-02-18T11:29:26;11.52;;;2.70;;
55987;SDS011;67216;50.930;4.514;2023-02-18T11:31:55;13.43;;;2.78;;
55987;SDS011;67216;50.930;4.514;2023-02-18T11:34:22;17.35;;;2.78;;
55987;SDS011;67216;50.930;4.514;2023-02-18T11:36:52;12.82;;;2.65;;
55987;SDS011;67216;50.930;4.514;2023-02-18T11:39:23;11.55;;;2.83;;
55987;SDS011;67216;50.930;4.514;2023-02-18T11:42:01;12.98;;;2.95;;
55987;SDS011;67216;50.930;4.514;2023-02-18T11:46:59;10.65;;;2.22;;
55987;SDS011;67216;50.930;4.514;2023-02-18T11:49:38;12.27;;;2.75;;
55987;SDS011;67216;50.930;4.514;2023-02-18T11:57:56;15.88;;;3.25;;
55987;SDS011;67216;50.930;4.514;2023-02-18T12:00:38;13.13;;;2.42;;
55987;SDS011;67216;50.930;4.514;2023-02-18T12:05:49;11.75;;;2.20;;
55987;SDS011;67216;50.930;4.514;2023-02-18T12:08:17;16.63;;;2.70;;
55987;SDS011;67216;50.930;4.514;2023-02-18T12:10:49;15.32;;;3.28;;
55987;SDS011;67216;50.930;4.514;2023-02-18T12:21:11;10.68;;;3.00;;
55987;SDS011;67216;50.930;4.514;2023-02-18T12:32:34;17.38;;;3.33;;
55987;SDS011;67216;50.930;4.514;2023-02-18T12:46:43;11.43;;;2.75;;
55987;SDS011;67216;50.930;4.514;2023-02-18T12:52:32;15.40;;;3.05;;
55987;SDS011;67216;50.930;4.514;2023-02-18T12:55:24;12.88;;;3.60;;
55987;SDS011;67216;50.930;4.514;2023-02-18T13:00:52;17.38;;;3.28;;
55987;SDS011;67216;50.930;4.514;2023-02-18T13:12:23;18.70;;;3.28;;
55987;SDS011;67216;50.930;4.514;2023-02-18T13:17:50;18.67;;;3.80;;
55987;SDS011;67216;50.930;4.514;2023-02-18T13:20:27;16.40;;;3.47;;
55987;SDS011;67216;50.930;4.514;2023-02-18T13:23:02;14.77;;;3.70;;
55987;SDS011;67216;50.930;4.514;2023-02-18T13:25:31;12.07;;;3.33;;
55987;SDS011;67216;50.930;4.514;2023-02-18T13:41:33;18.27;;;4.43;;
55987;SDS011;67216;50.930;4.514;2023-02-18T13:44:08;13.07;;;4.07;;
55987;SDS011;67216;50.930;4.514;2023-02-18T13:49:24;14.85;;;4.35;;
55987;SDS011;67216;50.930;4.514;2023-02-18T13:52:02;14.40;;;4.37;;
55987;SDS011;67216;50.930;4.514;2023-02-18T13:54:39;12.25;;;3.42;;
55987;SDS011;67216;50.930;4.514;2023-02-18T14:04:50;12.20;;;3.60;;
55987;SDS011;67216;50.930;4.514;2023-02-18T14:07:44;16.70;;;3.53;;
55987;SDS011;67216;50.930;4.514;2023-02-18T14:12:43;17.17;;;3.35;;
55987;SDS011;67216;50.930;4.514;2023-02-18T14:25:52;10.65;;;3.63;;
55987;SDS011;67216;50.930;4.514;2023-02-18T14:33:43;13.43;;;4.57;;
55987;SDS011;67216;50.930;4.514;2023-02-18T14:36:28;14.25;;;4.40;;
55987;SDS011;67216;50.930;4.514;2023-02-18T14:39:12;12.50;;;3.55;;
55987;SDS011;67216;50.930;4.514;2023-02-18T14:44:49;13.32;;;4.13;;
55987;SDS011;67216;50.930;4.514;2023-02-18T14:50:45;11.38;;;3.88;;
55987;SDS011;67216;50.930;4.514;2023-02-18T14:53:14;12.95;;;4.30;;
55987;SDS011;67216;50.930;4.514;2023-02-18T14:55:47;10.40;;;3.75;;
55987;SDS011;67216;50.930;4.514;2023-02-18T14:58:24;11.35;;;4.28;;
55987;SDS011;67216;50.930;4.514;2023-02-18T15:00:57;9.07;;;3.38;;
55987;SDS011;67216;50.930;4.514;2023-02-18T15:03:29;11.32;;;4.88;;
55987;SDS011;67216;50.930;4.514;2023-02-18T15:05:55;13.63;;;4.47;;
55987;SDS011;67216;50.930;4.514;2023-02-18T15:08:23;14.23;;;4.43;;
55987;SDS011;67216;50.930;4.514;2023-02-18T15:13:30;10.55;;;3.92;;
55987;SDS011;67216;50.930;4.514;2023-02-18T15:16:11;13.30;;;4.07;;
55987;SDS011;67216;50.930;4.514;2023-02-18T15:18:44;15.82;;;4.05;;
55987;SDS011;67216;50.930;4.514;2023-02-18T15:21:20;8.32;;;3.85;;
55987;SDS011;67216;50.930;4.514;2023-02-18T15:23:51;14.52;;;5.13;;
55987;SDS011;67216;50.930;4.514;2023-02-18T15:26:18;15.27;;;4.53;;
55987;SDS011;67216;50.930;4.514;2023-02-18T15:28:53;14.65;;;5.07;;
55987;SDS011;67216;50.930;4.514;2023-02-18T15:31:27;14.93;;;4.63;;
55987;SDS011;67216;50.930;4.514;2023-02-18T15:33:55;12.80;;;4.72;;
55987;SDS011;67216;50.930;4.514;2023-02-18T15:36:21;18.45;;;5.20;;
55987;SDS011;67216;50.930;4.514;2023-02-18T15:38:49;16.00;;;4.75;;
55987;SDS011;67216;50.930;4.514;2023-02-18T15:41:19;17.27;;;4.70;;
55987;SDS011;67216;50.930;4.514;2023-02-18T15:44:02;12.18;;;4.43;;
55987;SDS011;67216;50.930;4.514;2023-02-18T15:46:30;17.05;;;4.70;;
55987;SDS011;67216;50.930;4.514;2023-02-18T15:48:58;13.98;;;4.47;;
55987;SDS011;67216;50.930;4.514;2023-02-18T15:51:31;13.32;;;4.32;;
55987;SDS011;67216;50.930;4.514;2023-02-18T15:53:58;14.70;;;3.90;;
55987;SDS011;67216;50.930;4.514;2023-02-18T15:56:35;14.25;;;4.40;;
55987;SDS011;67216;50.930;4.514;2023-02-18T15:59:16;16.83;;;4.15;;
55987;SDS011;67216;50.930;4.514;2023-02-18T16:04:33;16.30;;;4.60;;
55987;SDS011;67216;50.930;4.514;2023-02-18T16:07:15;17.33;;;4.97;;
55987;SDS011;67216;50.930;4.514;2023-02-18T16:09:44;9.88;;;4.35;;
55987;SDS011;67216;50.930;4.514;2023-02-18T16:12:18;10.23;;;4.45;;
55987;SDS011;67216;50.930;4.514;2023-02-18T16:14:52;14.38;;;4.20;;
55987;SDS011;67216;50.930;4.514;2023-02-18T16:17:21;18.70;;;5.25;;
55987;SDS011;67216;50.930;4.514;2023-02-18T16:19:56;14.75;;;4.32;;
55987;SDS011;67216;50.930;4.514;2023-02-18T16:22:49;9.85;;;4.55;;
55987;SDS011;67216;50.930;4.514;2023-02-18T16:28:02;11.80;;;4.50;;
55987;SDS011;67216;50.930;4.514;2023-02-18T16:30:54;14.18;;;4.20;;
55987;SDS011;67216;50.930;4.514;2023-02-18T16:33:20;12.05;;;4.88;;
55987;SDS011;67216;50.930;4.514;2023-02-18T16:35:46;13.90;;;5.07;;
55987;SDS011;67216;50.930;4.514;2023-02-18T16:38:20;13.90;;;4.93;;
55987;SDS011;67216;50.930;4.514;2023-02-18T16:40:48;17.10;;;4.57;;
55987;SDS011;67216;50.930;4.514;2023-02-18T16:43:19;12.32;;;4.07;;
55987;SDS011;67216;50.930;4.514;2023-02-18T16:45:52;11.25;;;3.90;;
55987;SDS011;67216;50.930;4.514;2023-02-18T16:48:31;10.95;;;3.78;;
55987;SDS011;67216;50.930;4.514;2023-02-18T16:51:02;12.73;;;4.60;;
55987;SDS011;67216;50.930;4.514;2023-02-18T16:53:50;9.05;;;4.35;;
55987;SDS011;67216;50.930;4.514;2023-02-18T16:56:17;12.30;;;4.50;;
55987;SDS011;67216;50.930;4.514;2023-02-18T16:58:46;13.25;;;5.63;;
55987;SDS011;67216;50.930;4.514;2023-02-18T17:01:19;16.25;;;4.45;;
55987;SDS011;67216;50.930;4.514;2023-02-18T17:03:47;8.38;;;3.97;;
55987;SDS011;67216;50.930;4.514;2023-02-18T17:06:14;14.55;;;6.07;;
55987;SDS011;67216;50.930;4.514;2023-02-18T17:08:42;13.75;;;4.93;;
55987;SDS011;67216;50.930;4.514;2023-02-18T17:11:25;8.13;;;4.00;;
55987;SDS011;67216;50.930;4.514;2023-02-18T17:13:56;23.13;;;12.70;;
55987;SDS011;67216;50.930;4.514;2023-02-18T17:16:23;9.35;;;5.03;;
55987;SDS011;67216;50.930;4.514;2023-02-18T17:18:52;10.40;;;5.22;;
55987;SDS011;67216;50.930;4.514;2023-02-18T17:21:22;10.05;;;4.70;;
55987;SDS011;67216;50.930;4.514;2023-02-18T17:23:49;9.02;;;5.03;;
55987;SDS011;67216;50.930;4.514;2023-02-18T17:26:23;12.50;;;4.90;;
55987;SDS011;67216;50.930;4.514;2023-02-18T17:28:51;10.30;;;4.53;;
55987;SDS011;67216;50.930;4.514;2023-02-18T17:31:24;11.13;;;5.22;;
55987;SDS011;67216;50.930;4.514;2023-02-18T17:33:58;13.45;;;5.07;;
55987;SDS011;67216;50.930;4.514;2023-02-18T17:36:27;10.15;;;5.63;;
55987;SDS011;67216;50.930;4.514;2023-02-18T17:38:53;11.02;;;5.43;;
55987;SDS011;67216;50.930;4.514;2023-02-18T17:41:19;15.38;;;5.78;;
55987;SDS011;67216;50.930;4.514;2023-02-18T17:43:47;9.60;;;5.40;;
55987;SDS011;67216;50.930;4.514;2023-02-18T17:46:13;10.60;;;5.72;;
55987;SDS011;67216;50.930;4.514;2023-02-18T17:48:40;21.73;;;12.40;;
55987;SDS011;67216;50.930;4.514;2023-02-18T17:51:09;11.95;;;5.32;;
55987;SDS011;67216;50.930;4.514;2023-02-18T17:53:42;16.15;;;6.00;;